Tallahassee, FL (32399)

12:40 PM EDT on July 02, 2015 (GMT -0400)
Hartsfield Elementary School WeatherSTEM | | Change Station
CLOSE
Current Station
Personal Weather Station
Location: Tallahassee, FL
Elevation: 203 ft
Nearby Weather Stations

Elev 203 ft 30.43 °N, 84.26 °W | Updated 26 seconds ago

Overcast
Overcast
84.0 °F
Feels Like 91 °F
N
2.0
Wind Variable Wind from South
Gusts 4.0 mph

Today
High -- | Low -- °F
--% Chance of Precip.
Yesterday
High -- | Low -- °F
Precip. -- in
6:38 AM 8:43 PM
Full, 100% visible
Pressure 30.11 in
Visibility 10.0 miles
Clouds Scattered Clouds 3400 ft
Scattered Clouds 8000 ft
Mostly Cloudy 25000 ft
Heat Index 91 °F
Dew Point 74 °F
Humidity 72%
Rainfall 0.00 in
Snow Depth Not available.
UV 4.0 out of 12
Pollen .50 out of 12
Air Quality Not available.
Flu Activity Not available.
METAR KTLH 021553Z 29011KT 10SM TS SCT034CB SCT080 BKN250 31/21 A3011 RMK AO2 TSB37 SLP194 OCNL LTGICCG NE TS NE MOV E CB SW MOV E T03110211

More Conditions Fewer Conditions

Pressure 30.11 in
Visibility 10.0 miles
Clouds Scattered Clouds 3400 ft
Scattered Clouds 8000 ft
Mostly Cloudy 25000 ft
Heat Index 91 °F
Dew Point 74 °F
Humidity 72%
Rainfall 0.00 in
Snow Depth Not available.
UV 4.0 out of 12
Pollen .50 out of 12
Air Quality Not available.
Flu Activity Not available.
METAR KTLH 021553Z 29011KT 10SM TS SCT034CB SCT080 BKN250 31/21 A3011 RMK AO2 TSB37 SLP194 OCNL LTGICCG NE TS NE MOV E CB SW MOV E T03110211

More Conditions Fewer Conditions

10-Day Weather Forecast

×

Almanac

Astronomy

Jul. 02, 2015 Rise Set
Actual Time
Civil Twilight
Nautical Twilight
Astronomical Twilight
Moon
Length of Visible Light
Length of Day
Tomorrow will be .
, % of the Moon is Illuminated

Today's Extremes

State Highs State Lows

Community

WunderPhotos

Upload Photos

1,834,498 photos uploaded!

WunderBlogs® & News

Nearby

Air Quality

  Air Quality AQ Index Pollutant
Not available.

Snow Depth

Station Depth Elevation

Earthquake Activity

City Distance Mag. Time & Date
Minimum magnitude displayed is 2.5.

Coastal Water Temperatures

Place Temperature

Stations

Nearby Weather Stations

Station Location Temp. Windchill Dew Point Humidity Wind Precip. Elev Updated Type